createdAt,value
2024-05-09T00:03:56.515Z,10.80
2024-05-09T00:06:23.168Z,9.07
2024-05-09T00:08:49.827Z,10.40
2024-05-09T00:11:16.629Z,10.00
2024-05-09T00:13:43.401Z,10.05
2024-05-09T00:16:10.147Z,10.02
2024-05-09T00:18:40.223Z,10.32
2024-05-09T00:21:08.844Z,9.68
2024-05-09T00:26:53.034Z,10.70
2024-05-09T00:30:41.615Z,9.75
2024-05-09T00:37:34.048Z,9.75
2024-05-09T00:40:05.800Z,9.00
2024-05-09T00:48:42.573Z,10.52
2024-05-09T00:51:15.339Z,10.55
2024-05-09T00:53:42.440Z,9.52
2024-05-09T00:56:13.597Z,8.93
2024-05-09T00:58:40.711Z,10.20
2024-05-09T01:19:40.292Z,9.27
2024-05-09T01:23:00.054Z,8.88
2024-05-09T01:25:26.734Z,8.07
2024-05-09T01:27:53.330Z,8.40
2024-05-09T01:30:24.374Z,8.63
2024-05-09T01:32:54.836Z,7.63
2024-05-09T01:35:23.574Z,9.23
2024-05-09T01:37:51.941Z,9.25
2024-05-09T01:40:25.209Z,8.77
2024-05-09T01:43:00.482Z,9.13
2024-05-09T01:45:27.941Z,7.88
2024-05-09T01:47:54.825Z,8.60
2024-05-09T01:50:33.080Z,8.57
2024-05-09T01:53:04.303Z,9.63
2024-05-09T01:55:30.873Z,8.75
2024-05-09T01:57:57.480Z,8.70
2024-05-09T02:00:38.077Z,9.13
2024-05-09T02:03:23.306Z,9.60
2024-05-09T02:05:57.986Z,10.05
2024-05-09T02:08:26.019Z,9.85
2024-05-09T02:11:14.851Z,9.00
2024-05-09T02:13:53.656Z,11.68
2024-05-09T02:26:15.457Z,9.20
2024-05-09T02:29:35.018Z,9.57
2024-05-09T02:32:01.823Z,11.35
2024-05-09T02:37:09.131Z,9.70
2024-05-09T02:39:47.661Z,13.90
2024-05-09T02:46:18.911Z,9.48
2024-05-09T02:54:46.900Z,10.48
2024-05-09T02:57:15.827Z,11.18
2024-05-09T02:59:45.312Z,11.68
2024-05-09T03:02:11.966Z,9.27
2024-05-09T03:04:38.858Z,9.70
2024-05-09T03:07:05.520Z,9.35
2024-05-09T03:09:32.167Z,9.45
2024-05-09T03:11:59.252Z,8.60
2024-05-09T03:14:26.201Z,8.70
2024-05-09T03:16:52.891Z,8.38
2024-05-09T03:19:19.533Z,8.95
2024-05-09T03:21:46.198Z,9.38
2024-05-09T03:24:12.784Z,8.25
2024-05-09T03:26:39.403Z,9.63
2024-05-09T03:29:06.268Z,8.55
2024-05-09T03:31:33.325Z,8.15
2024-05-09T03:34:00.087Z,7.95
2024-05-09T03:36:26.764Z,7.95
2024-05-09T03:38:53.809Z,8.57
2024-05-09T03:41:25.645Z,8.15
2024-05-09T03:43:52.281Z,7.97
2024-05-09T03:46:18.891Z,8.60
2024-05-09T03:48:45.606Z,7.60
2024-05-09T03:51:12.516Z,7.93
2024-05-09T03:53:43.433Z,7.95
2024-05-09T03:56:10.237Z,8.65
2024-05-09T03:58:37.740Z,8.38
2024-05-09T04:01:05.099Z,8.43
2024-05-09T04:03:34.740Z,8.38
2024-05-09T04:07:14.096Z,9.13
2024-05-09T04:15:14.989Z,8.05
2024-05-09T04:17:53.872Z,9.32
2024-05-09T04:20:53.284Z,8.90
2024-05-09T04:23:19.962Z,10.60
2024-05-09T04:25:47.138Z,9.05
2024-05-09T04:28:14.441Z,9.88
2024-05-09T04:30:47.218Z,8.23
2024-05-09T04:55:00.352Z,10.25
2024-05-09T05:00:32.271Z,12.00
2024-05-09T05:03:08.410Z,12.15
2024-05-09T05:05:41.865Z,12.00
2024-05-09T05:08:13.245Z,10.48
2024-05-09T05:13:23.822Z,12.45
2024-05-09T05:15:58.864Z,13.57
2024-05-09T05:29:49.805Z,12.68
2024-05-09T05:32:16.680Z,14.38
2024-05-09T05:34:46.321Z,13.68
2024-05-09T05:37:13.047Z,12.77
2024-05-09T05:39:39.558Z,13.40
2024-05-09T05:42:06.253Z,13.48
2024-05-09T06:31:08.762Z,16.65
2024-05-09T07:21:51.778Z,14.68
2024-05-09T07:24:18.659Z,17.90
2024-05-09T07:27:07.514Z,19.60
2024-05-09T07:29:42.165Z,16.38
2024-05-09T07:32:15.145Z,14.73
2024-05-09T07:34:41.951Z,16.13
2024-05-09T07:37:12.770Z,15.35
2024-05-09T07:39:40.204Z,16.95
2024-05-09T07:42:07.195Z,15.07
2024-05-09T07:44:33.928Z,14.50
2024-05-09T07:55:45.372Z,13.40
2024-05-09T08:01:38.239Z,14.98
2024-05-09T08:04:04.959Z,15.05
2024-05-09T08:06:34.522Z,15.75
2024-05-09T08:09:05.439Z,13.95
2024-05-09T08:11:34.820Z,13.50
2024-05-09T08:14:01.600Z,10.80
2024-05-09T08:16:28.695Z,9.73
2024-05-09T08:18:55.527Z,9.38
2024-05-09T08:21:22.187Z,13.25
2024-05-09T08:23:53.714Z,14.00
2024-05-09T08:26:20.598Z,12.07
2024-05-09T08:28:47.360Z,11.45
2024-05-09T08:31:17.108Z,11.90
2024-05-09T08:33:50.226Z,11.85
2024-05-09T08:36:17.424Z,11.48
2024-05-09T08:38:48.660Z,12.05
2024-05-09T08:41:19.550Z,13.10
2024-05-09T08:46:42.759Z,11.40
2024-05-09T08:49:10.334Z,10.93
2024-05-09T08:51:37.259Z,10.38
2024-05-09T08:54:06.671Z,13.40
2024-05-09T08:56:42.354Z,13.25
2024-05-09T08:59:18.004Z,12.77
2024-05-09T09:09:15.723Z,10.90
2024-05-09T09:12:08.580Z,11.07
2024-05-09T09:14:36.126Z,12.00
2024-05-09T09:17:12.703Z,12.07
2024-05-09T09:19:42.195Z,12.32
2024-05-09T09:22:10.467Z,12.15
2024-05-09T09:24:37.121Z,12.02
2024-05-09T09:27:04.204Z,11.30
2024-05-09T09:29:34.321Z,14.80
2024-05-09T09:32:05.355Z,11.18
2024-05-09T09:34:32.671Z,14.77
2024-05-09T09:37:06.511Z,13.20
2024-05-09T09:39:38.936Z,13.40
2024-05-09T09:42:09.119Z,11.82
2024-05-09T09:44:39.463Z,11.45
2024-05-09T09:47:06.566Z,11.32
2024-05-09T09:49:33.537Z,12.38
2024-05-09T09:52:02.307Z,10.82
2024-05-09T10:01:28.471Z,12.70
2024-05-09T10:04:02.431Z,9.88
2024-05-09T10:06:30.127Z,10.05
2024-05-09T10:36:30.494Z,8.00
2024-05-09T11:29:10.889Z,8.65
2024-05-09T11:31:47.724Z,7.55
2024-05-09T11:34:18.099Z,8.32
2024-05-09T12:20:00.256Z,10.35
2024-05-09T12:22:29.776Z,12.95
2024-05-09T12:24:56.327Z,11.60
2024-05-09T12:33:19.863Z,12.68
2024-05-09T12:36:33.346Z,11.75
2024-05-09T12:39:18.026Z,12.80
2024-05-09T12:48:13.342Z,12.60
2024-05-09T12:50:42.004Z,12.30
2024-05-09T12:53:28.873Z,13.70
2024-05-09T12:56:19.722Z,15.43
2024-05-09T12:58:46.311Z,12.93
2024-05-09T13:02:01.224Z,12.07
2024-05-09T13:11:14.871Z,13.18
2024-05-09T13:18:13.061Z,11.27
2024-05-09T13:48:34.696Z,14.07
2024-05-09T13:51:30.152Z,13.07
2024-05-09T13:56:52.504Z,13.05
2024-05-09T14:09:53.636Z,11.55
2024-05-09T14:12:27.636Z,11.57
2024-05-09T14:14:55.453Z,13.32
2024-05-09T14:17:24.310Z,13.45
2024-05-09T14:20:13.972Z,11.60
2024-05-09T14:22:44.973Z,12.57
2024-05-09T14:25:15.404Z,14.00
2024-05-09T14:27:42.182Z,12.48
2024-05-09T14:30:18.601Z,13.98
2024-05-09T14:32:59.310Z,14.20
2024-05-09T16:32:53.397Z,17.42
2024-05-09T16:39:07.144Z,18.00
2024-05-09T16:45:14.959Z,19.35
2024-05-09T17:10:29.656Z,20.80
2024-05-09T17:20:34.357Z,20.25
2024-05-09T17:37:42.889Z,20.75
2024-05-09T17:40:16.881Z,19.10
2024-05-09T18:01:09.885Z,18.95
